createdAt,value
2019-05-26T00:01:26.762Z,97424.55
2019-05-26T00:03:56.954Z,97419.03
2019-05-26T00:06:27.134Z,97422.79
2019-05-26T00:08:57.465Z,97414.08
2019-05-26T00:11:27.574Z,97411.69
2019-05-26T00:13:58.581Z,97410.14
2019-05-26T00:16:28.122Z,97407.77
2019-05-26T00:18:58.446Z,97407.56
2019-05-26T00:21:28.517Z,97403.63
2019-05-26T00:23:58.906Z,97397.73
2019-05-26T00:26:29.469Z,97397.45
2019-05-26T00:28:59.915Z,97397.13
2019-05-26T00:31:29.669Z,97394.36
2019-05-26T00:34:00.048Z,97390.42
2019-05-26T00:36:30.131Z,97390.47
2019-05-26T00:39:01.140Z,97390.64
2019-05-26T00:41:32.156Z,97395.23
2019-05-26T00:44:01.545Z,97387.76
2019-05-26T00:46:31.244Z,97398.55
2019-05-26T00:49:01.481Z,97395.84
2019-05-26T00:51:31.817Z,97393.38
2019-05-26T00:54:02.221Z,97391.59
2019-05-26T00:56:32.463Z,97394.02
2019-05-26T00:59:02.660Z,97393.37
2019-05-26T01:01:32.796Z,97401.55
2019-05-26T01:04:03.212Z,97401.59
2019-05-26T01:06:33.449Z,97400.16
2019-05-26T01:09:05.972Z,97395.39
2019-05-26T01:11:35.444Z,97396.72
2019-05-26T01:14:05.755Z,97386.55
2019-05-26T01:16:35.505Z,97395.44
2019-05-26T01:19:05.915Z,97395.66
2019-05-26T01:21:36.065Z,97400.27
2019-05-26T01:24:05.510Z,97399.36
2019-05-26T01:26:35.479Z,97402.25
2019-05-26T01:29:05.845Z,97395.11
2019-05-26T01:31:36.112Z,97399.19
2019-05-26T01:34:08.333Z,97400.56
2019-05-26T01:36:38.000Z,97406.02
2019-05-26T01:39:08.710Z,97398.09
2019-05-26T01:41:38.113Z,97405.04
2019-05-26T01:44:07.566Z,97402.31
2019-05-26T01:46:37.481Z,97404.70
2019-05-26T01:49:07.823Z,97414.49
2019-05-26T01:51:37.978Z,97408.23
2019-05-26T01:54:08.247Z,97412.47
2019-05-26T01:56:38.722Z,97409.94
2019-05-26T01:59:08.809Z,97409.95
2019-05-26T02:01:39.001Z,97412.30
2019-05-26T02:04:09.653Z,97413.63
2019-05-26T02:06:39.614Z,97415.84
2019-05-26T02:09:10.055Z,97414.82
2019-05-26T02:11:40.078Z,97414.77
2019-05-26T02:14:14.223Z,97419.20
2019-05-26T02:16:41.551Z,97414.82
2019-05-26T02:19:10.977Z,97415.16
2019-05-26T02:21:41.180Z,97408.41
2019-05-26T02:24:11.432Z,97409.95
2019-05-26T02:26:41.636Z,97413.98
2019-05-26T02:29:11.908Z,97414.14
2019-05-26T02:31:42.051Z,97409.08
2019-05-26T02:34:12.478Z,97412.81
2019-05-26T02:36:42.576Z,97410.44
2019-05-26T02:39:12.940Z,97414.14
2019-05-26T02:41:43.091Z,97410.77
2019-05-26T02:44:13.402Z,97406.72
2019-05-26T02:46:43.576Z,97411.78
2019-05-26T02:49:13.832Z,97414.65
2019-05-26T02:51:44.140Z,97423.28
2019-05-26T02:54:14.396Z,97417.84
2019-05-26T02:56:44.612Z,97422.22
2019-05-26T02:59:14.871Z,97414.46
2019-05-26T03:02:02.423Z,97412.73
2019-05-26T03:04:16.448Z,97404.48
2019-05-26T03:06:46.860Z,97403.50
2019-05-26T03:09:23.238Z,97401.66
2019-05-26T03:11:52.725Z,97405.88
2019-05-26T03:14:24.084Z,97413.12
2019-05-26T03:16:55.982Z,97410.42
2019-05-26T03:19:27.007Z,97412.31
2019-05-26T03:21:59.145Z,97414.42
2019-05-26T03:24:29.467Z,97419.47
2019-05-26T03:26:59.212Z,97421.25
2019-05-26T03:29:29.566Z,97421.57
2019-05-26T03:31:59.051Z,97429.33
2019-05-26T03:34:28.428Z,97428.61
2019-05-26T03:36:57.805Z,97425.94
2019-05-26T03:39:43.774Z,97425.42
2019-05-26T03:41:58.271Z,97428.33
2019-05-26T03:44:27.725Z,97433.70
2019-05-26T03:46:57.105Z,97433.66
2019-05-26T03:49:26.522Z,97434.03
2019-05-26T03:51:55.889Z,97432.57
2019-05-26T03:54:25.356Z,97439.72
2019-05-26T03:56:54.744Z,97440.14
2019-05-26T03:59:25.114Z,97445.54
2019-05-26T04:01:57.621Z,97444.86
2019-05-26T04:04:25.617Z,97449.55
2019-05-26T04:06:54.993Z,97449.60
2019-05-26T04:09:24.383Z,97443.19
2019-05-26T04:11:53.758Z,97445.88
2019-05-26T04:14:23.146Z,97446.72
2019-05-26T04:16:56.115Z,97448.34
2019-05-26T04:19:23.749Z,97447.05
2019-05-26T04:21:53.357Z,97446.44
2019-05-26T04:24:23.701Z,97453.13
2019-05-26T04:26:53.666Z,97452.67
2019-05-26T04:29:23.981Z,97449.05
2019-05-26T04:31:54.211Z,97451.88
2019-05-26T04:34:24.652Z,97452.88
2019-05-26T04:36:54.776Z,97453.69
2019-05-26T04:39:25.070Z,97451.81
2019-05-26T04:41:55.300Z,97454.39
2019-05-26T04:44:25.694Z,97455.87
2019-05-26T04:46:55.849Z,97460.32
2019-05-26T04:49:26.610Z,97454.86
2019-05-26T04:51:56.395Z,97456.97
2019-05-26T04:54:26.602Z,97457.78
2019-05-26T04:56:56.840Z,97461.91
2019-05-26T04:59:27.109Z,97468.02
2019-05-26T05:01:57.471Z,97462.79
2019-05-26T05:04:27.650Z,97463.45
2019-05-26T05:06:58.116Z,97467.52
2019-05-26T05:09:28.124Z,97476.37
2019-05-26T05:11:58.382Z,97472.52
2019-05-26T05:14:28.696Z,97473.99
2019-05-26T05:16:58.828Z,97473.38
2019-05-26T05:19:29.154Z,97484.10
2019-05-26T05:21:59.376Z,97478.23
2019-05-26T05:24:29.716Z,97483.73
2019-05-26T05:27:00.026Z,97483.48
2019-05-26T05:29:30.432Z,97482.72
2019-05-26T05:32:00.477Z,97478.77
2019-05-26T05:34:30.821Z,97479.98
2019-05-26T05:37:01.004Z,97482.45
2019-05-26T05:39:31.374Z,97484.66
2019-05-26T05:42:01.598Z,97488.20
2019-05-26T05:44:31.669Z,97485.67
2019-05-26T05:47:01.926Z,97494.32
2019-05-26T05:49:32.141Z,97487.17
2019-05-26T05:52:02.494Z,97490.55
2019-05-26T05:54:32.835Z,97495.02
2019-05-26T05:57:02.953Z,97490.29
2019-05-26T05:59:33.290Z,97499.24
2019-05-26T06:02:03.372Z,97501.74
2019-05-26T06:04:33.607Z,97505.75
2019-05-26T06:07:03.943Z,97492.29
2019-05-26T06:09:34.123Z,97492.59
2019-05-26T06:12:04.519Z,97493.78
2019-05-26T06:14:34.744Z,97501.19
2019-05-26T06:17:05.222Z,97507.95
2019-05-26T06:19:35.144Z,97505.60
2019-05-26T06:22:05.796Z,97512.16
2019-05-26T06:24:35.657Z,97508.20
2019-05-26T06:27:05.997Z,97505.95
2019-05-26T06:29:36.410Z,97505.61
2019-05-26T06:32:06.882Z,97504.02
2019-05-26T06:34:36.645Z,97506.45
2019-05-26T06:37:06.780Z,97513.80
2019-05-26T06:39:37.094Z,97513.72
2019-05-26T06:42:07.263Z,97511.52
2019-05-26T06:44:52.422Z,97510.69
2019-05-26T06:47:09.139Z,97499.99
2019-05-26T06:49:39.316Z,97501.00
2019-05-26T06:52:09.357Z,97493.87
2019-05-26T06:54:38.745Z,97493.75
2019-05-26T06:57:08.653Z,97488.28
2019-05-26T06:59:39.004Z,97488.25
2019-05-26T07:02:09.101Z,97490.88
2019-05-26T07:04:39.561Z,97491.93
2019-05-26T07:07:09.449Z,97486.53
2019-05-26T07:09:39.622Z,97490.67
2019-05-26T07:12:09.613Z,97485.09
2019-05-26T07:14:39.656Z,97491.48
2019-05-26T07:17:09.635Z,97496.39
2019-05-26T07:19:40.780Z,97496.61
2019-05-26T07:22:10.168Z,97501.63
2019-05-26T07:24:39.734Z,97499.52
2019-05-26T07:27:09.709Z,97503.12
2019-05-26T07:29:39.840Z,97499.10
2019-05-26T07:32:11.243Z,97502.28
2019-05-26T07:34:41.042Z,97504.91
2019-05-26T07:37:10.623Z,97506.32
2019-05-26T07:39:40.416Z,97503.80
2019-05-26T07:42:11.256Z,97501.95
2019-05-26T07:44:40.790Z,97505.30
2019-05-26T07:47:10.181Z,97513.81
2019-05-26T07:49:40.146Z,97510.11
2019-05-26T07:52:10.109Z,97507.82
2019-05-26T07:54:40.168Z,97506.39
2019-05-26T07:57:10.158Z,97497.97
2019-05-26T07:59:40.270Z,97505.62
2019-05-26T08:02:10.364Z,97500.95
2019-05-26T08:04:40.372Z,97490.37
2019-05-26T08:07:10.318Z,97492.14
2019-05-26T08:09:40.495Z,97496.66
2019-05-26T08:12:24.912Z,97485.54
2019-05-26T08:14:41.537Z,97483.88
2019-05-26T08:17:11.049Z,97479.50
2019-05-26T08:19:40.781Z,97475.89
2019-05-26T08:22:10.740Z,97477.16
2019-05-26T08:24:40.705Z,97474.00
2019-05-26T08:27:11.085Z,97477.81
2019-05-26T08:29:40.875Z,97487.11
2019-05-26T08:32:10.828Z,97481.03
2019-05-26T08:34:40.981Z,97484.11
2019-05-26T08:37:10.939Z,97466.70
2019-05-26T08:39:41.003Z,97467.54
2019-05-26T08:42:26.038Z,97467.30
2019-05-26T08:44:42.058Z,97467.69
2019-05-26T08:47:11.441Z,97474.06
2019-05-26T08:49:41.180Z,97468.82
2019-05-26T08:52:11.087Z,97469.36
2019-05-26T08:54:41.225Z,97458.33
2019-05-26T08:57:11.133Z,97456.80
2019-05-26T08:59:41.274Z,97457.50
2019-05-26T09:02:11.328Z,97453.81
2019-05-26T09:04:41.402Z,97461.38
2019-05-26T09:07:11.369Z,97459.06
2019-05-26T09:09:41.394Z,97449.05
2019-05-26T09:12:11.361Z,97449.05
2019-05-26T09:14:41.433Z,97450.26
2019-05-26T09:17:11.388Z,97447.04
2019-05-26T09:19:41.615Z,97445.14
2019-05-26T09:22:11.492Z,97440.94
2019-05-26T09:24:41.768Z,97446.09
2019-05-26T09:27:11.615Z,97445.86
2019-05-26T09:29:41.904Z,97440.53
2019-05-26T09:32:12.256Z,97434.81
2019-05-26T09:34:41.716Z,97442.05
2019-05-26T09:37:11.667Z,97430.94
2019-05-26T09:39:41.937Z,97432.23
2019-05-26T09:42:11.820Z,97436.19
2019-05-26T09:44:41.825Z,97430.13
2019-05-26T09:47:11.865Z,97427.05
2019-05-26T09:49:42.028Z,97434.37
2019-05-26T09:52:11.983Z,97427.81
2019-05-26T09:54:41.968Z,97431.06
2019-05-26T09:57:11.915Z,97433.31
2019-05-26T09:59:42.084Z,97442.52
2019-05-26T10:02:12.012Z,97444.73
2019-05-26T10:04:42.152Z,97443.38
2019-05-26T10:07:15.851Z,97433.55
2019-05-26T10:09:42.476Z,97429.66
2019-05-26T10:12:12.313Z,97423.16
2019-05-26T10:14:42.284Z,97431.59
2019-05-26T10:17:12.284Z,97429.50
2019-05-26T10:19:42.545Z,97418.94
2019-05-26T10:22:12.440Z,97418.06
2019-05-26T10:24:42.452Z,97417.98
2019-05-26T10:27:12.440Z,97413.48
2019-05-26T10:29:42.600Z,97408.78
2019-05-26T10:32:12.662Z,97411.96
2019-05-26T10:34:42.640Z,97405.02
2019-05-26T10:37:12.602Z,97405.02
2019-05-26T10:39:45.080Z,97415.56
2019-05-26T10:42:14.935Z,97413.34
2019-05-26T10:44:44.343Z,97406.82
2019-05-26T10:47:13.719Z,97402.63
2019-05-26T10:49:43.095Z,97404.63
2019-05-26T10:52:13.048Z,97402.18
2019-05-26T10:54:43.011Z,97397.67
2019-05-26T10:57:12.977Z,97405.19
2019-05-26T10:59:43.135Z,97398.67
2019-05-26T11:02:13.234Z,97408.57
2019-05-26T11:04:43.181Z,97400.89
2019-05-26T11:07:13.164Z,97397.52
2019-05-26T11:09:43.329Z,97399.04
2019-05-26T11:12:13.276Z,97397.62
2019-05-26T11:14:43.348Z,97391.69
2019-05-26T11:17:13.333Z,97396.00
2019-05-26T11:19:43.481Z,97398.31
2019-05-26T11:22:13.510Z,97384.30
2019-05-26T11:24:43.495Z,97370.60
2019-05-26T11:27:14.515Z,97371.59
2019-05-26T11:29:45.125Z,97363.23
2019-05-26T11:32:14.503Z,97366.91
2019-05-26T11:34:43.879Z,97362.87
2019-05-26T11:37:13.625Z,97359.13
2019-05-26T11:39:43.808Z,97357.72
2019-05-26T11:42:14.384Z,97348.02
2019-05-26T11:44:44.836Z,97353.23
2019-05-26T11:47:14.219Z,97349.53
2019-05-26T11:49:44.007Z,97354.84
2019-05-26T11:52:13.937Z,97355.67
2019-05-26T11:54:43.970Z,97343.33
2019-05-26T11:57:13.401Z,97334.16
2019-05-26T11:59:46.982Z,97334.15
2019-05-26T12:02:14.473Z,97335.28
2019-05-26T12:04:44.395Z,97321.67
2019-05-26T12:07:14.337Z,97325.07
2019-05-26T12:09:44.393Z,97325.37
2019-05-26T12:12:14.420Z,97334.15
2019-05-26T12:14:44.416Z,97335.91
2019-05-26T12:17:14.445Z,97321.30
2019-05-26T12:19:44.915Z,97319.41
2019-05-26T12:22:15.360Z,97317.48
2019-05-26T12:24:44.744Z,97318.36
2019-05-26T12:27:14.773Z,97314.48
2019-05-26T12:29:44.900Z,97315.98
2019-05-26T12:32:14.856Z,97312.80
2019-05-26T12:34:44.942Z,97309.84
2019-05-26T12:37:14.903Z,97312.38
2019-05-26T12:39:45.112Z,97300.39
2019-05-26T12:42:16.994Z,97295.05
2019-05-26T12:44:49.667Z,97293.38
2019-05-26T12:47:17.179Z,97286.46
2019-05-26T12:49:47.554Z,97289.55
2019-05-26T12:52:17.008Z,97272.41
2019-05-26T12:54:46.405Z,97283.14
2019-05-26T12:57:15.926Z,97283.18
2019-05-26T12:59:46.191Z,97281.88
2019-05-26T13:02:16.549Z,97277.60
2019-05-26T13:04:46.525Z,97281.77
2019-05-26T13:07:18.006Z,97275.91
2019-05-26T13:09:47.393Z,97274.20
2019-05-26T13:12:16.788Z,97266.36
2019-05-26T13:14:46.643Z,97270.86
2019-05-26T13:17:16.971Z,97263.31
2019-05-26T13:19:47.176Z,97266.44
2019-05-26T13:22:17.690Z,97259.78
2019-05-26T13:24:47.803Z,97254.25
2019-05-26T13:27:18.173Z,97259.16
2019-05-26T13:29:48.323Z,97251.55
2019-05-26T13:32:18.733Z,97251.16
2019-05-26T13:34:48.831Z,97250.97
2019-05-26T13:37:19.279Z,97252.73
2019-05-26T13:39:49.496Z,97246.03
2019-05-26T13:42:19.748Z,97246.38
2019-05-26T13:44:49.973Z,97242.72
2019-05-26T13:47:26.104Z,97249.11
2019-05-26T13:49:51.327Z,97240.02
2019-05-26T13:52:20.890Z,97239.77
2019-05-26T13:54:50.936Z,97248.92
2019-05-26T13:57:21.280Z,97241.56
2019-05-26T13:59:51.370Z,97241.08
2019-05-26T14:02:21.751Z,97240.45
2019-05-26T14:04:52.004Z,97242.69
2019-05-26T14:07:22.241Z,97239.19
2019-05-26T14:09:52.393Z,97241.56
2019-05-26T14:12:22.965Z,97239.64
2019-05-26T14:14:53.790Z,97238.23
2019-05-26T14:17:24.191Z,97236.44
2019-05-26T14:19:55.002Z,97238.92
2019-05-26T14:22:24.388Z,97243.11
2019-05-26T14:24:54.514Z,97235.80
2019-05-26T14:27:24.909Z,97243.47
2019-05-26T14:29:54.556Z,97241.83
2019-05-26T14:32:24.900Z,97247.19
2019-05-26T14:34:55.180Z,97251.19
2019-05-26T14:37:25.477Z,97237.05
2019-05-26T14:39:55.687Z,97238.09
2019-05-26T14:42:26.008Z,97243.91
2019-05-26T14:44:56.147Z,97245.30
2019-05-26T14:47:26.443Z,97247.16
2019-05-26T14:49:56.695Z,97251.59
2019-05-26T14:52:26.881Z,97248.34
2019-05-26T14:54:57.093Z,97248.13
2019-05-26T14:57:30.820Z,97246.45
2019-05-26T14:59:58.466Z,97246.77
2019-05-26T15:02:27.888Z,97249.48
2019-05-26T15:04:57.863Z,97248.55
2019-05-26T15:07:28.297Z,97244.71
2019-05-26T15:09:58.140Z,97247.45
2019-05-26T15:12:28.874Z,97249.45
2019-05-26T15:14:58.561Z,97244.58
2019-05-26T15:17:28.557Z,97239.52
2019-05-26T15:19:58.619Z,97248.05
2019-05-26T15:22:28.870Z,97240.86
2019-05-26T15:24:59.099Z,97231.95
2019-05-26T15:27:29.287Z,97224.64
2019-05-26T15:29:59.524Z,97222.17
2019-05-26T15:32:29.872Z,97222.84
2019-05-26T15:34:59.280Z,97214.16
2019-05-26T15:37:28.736Z,97219.66
2019-05-26T15:39:58.162Z,97218.06
2019-05-26T15:42:27.495Z,97221.69
2019-05-26T15:44:56.880Z,97222.08
2019-05-26T15:47:26.262Z,97222.08
2019-05-26T15:49:55.738Z,97222.72
2019-05-26T15:52:25.113Z,97227.20
2019-05-26T15:54:54.500Z,97232.30
2019-05-26T15:57:23.942Z,97226.30
2019-05-26T15:59:54.654Z,97222.33
2019-05-26T16:02:24.209Z,97231.56
2019-05-26T16:04:53.604Z,97227.37
2019-05-26T16:07:22.976Z,97226.30
2019-05-26T16:09:52.353Z,97227.89
2019-05-26T16:12:21.935Z,97226.39
2019-05-26T16:14:51.322Z,97232.41
2019-05-26T16:17:20.703Z,97233.40
2019-05-26T16:19:50.104Z,97233.05
2019-05-26T16:22:19.490Z,97227.66
2019-05-26T16:24:48.882Z,97223.67
2019-05-26T16:27:19.707Z,97226.88
2019-05-26T16:29:49.289Z,97219.30
2019-05-26T16:32:19.138Z,97211.70
2019-05-26T16:34:48.549Z,97217.84
2019-05-26T16:37:18.472Z,97215.97
2019-05-26T16:39:48.604Z,97220.16
2019-05-26T16:42:18.654Z,97227.41
2019-05-26T16:44:48.657Z,97212.44
2019-05-26T16:47:18.675Z,97207.45
2019-05-26T16:49:48.783Z,97204.28
2019-05-26T16:52:18.829Z,97204.28
2019-05-26T16:54:48.803Z,97208.92
2019-05-26T16:57:18.811Z,97207.16
2019-05-26T16:59:48.936Z,97212.02
2019-05-26T17:02:18.922Z,97210.13
2019-05-26T17:04:48.934Z,97213.39
2019-05-26T17:07:18.925Z,97213.73
2019-05-26T17:09:49.105Z,97213.06
2019-05-26T17:12:19.025Z,97215.73
2019-05-26T17:14:49.081Z,97212.34
2019-05-26T17:17:19.046Z,97214.67
2019-05-26T17:19:52.583Z,97215.14
2019-05-26T17:22:20.401Z,97216.98
2019-05-26T17:24:50.753Z,97218.70
2019-05-26T17:27:20.135Z,97218.83
2019-05-26T17:29:49.555Z,97221.45
2019-05-26T17:32:19.419Z,97221.88
2019-05-26T17:34:49.420Z,97222.41
2019-05-26T17:37:19.284Z,97224.24
2019-05-26T17:39:49.551Z,97221.19
2019-05-26T17:42:18.924Z,97227.75
2019-05-26T17:44:48.313Z,97234.77
2019-05-26T17:47:29.731Z,97234.47
2019-05-26T17:49:49.584Z,97231.07
2019-05-26T17:52:19.605Z,97229.54
2019-05-26T17:54:49.595Z,97235.55
2019-05-26T17:57:19.612Z,97230.38
2019-05-26T17:59:49.737Z,97235.62
2019-05-26T18:02:19.760Z,97237.20
2019-05-26T18:09:46.173Z,97235.75
2019-05-26T18:12:15.552Z,97235.66
2019-05-26T18:14:44.942Z,97237.45
2019-05-26T18:17:14.321Z,97236.73
2019-05-26T18:19:43.697Z,97237.38
2019-05-26T18:22:13.247Z,97237.11
2019-05-26T18:24:54.867Z,97231.38
2019-05-26T18:27:14.526Z,97238.48
2019-05-26T18:29:44.012Z,97224.25
2019-05-26T18:32:13.942Z,97221.73
2019-05-26T18:34:44.055Z,97225.00
2019-05-26T18:37:14.214Z,97229.51
2019-05-26T18:39:44.567Z,97234.77
2019-05-26T18:42:14.660Z,97228.56
2019-05-26T18:44:45.026Z,97227.42
2019-05-26T18:47:15.080Z,97229.45
2019-05-26T18:49:45.399Z,97232.38
2019-05-26T18:52:15.598Z,97242.22
2019-05-26T18:54:46.757Z,97240.13
2019-05-26T18:57:16.146Z,97247.36
2019-05-26T18:59:46.261Z,97251.78
2019-05-26T19:02:16.495Z,97254.78
2019-05-26T19:04:47.677Z,97260.27
2019-05-26T19:07:17.061Z,97255.20
2019-05-26T19:09:47.170Z,97262.34
2019-05-26T19:12:17.523Z,97262.34
2019-05-26T19:14:47.606Z,97261.48
2019-05-26T19:17:17.815Z,97267.88
2019-05-26T19:19:48.152Z,97267.66
2019-05-26T19:22:18.276Z,97269.48
2019-05-26T19:24:48.505Z,97263.70
2019-05-26T19:27:19.021Z,97262.37
2019-05-26T19:29:49.096Z,97268.15
2019-05-26T19:32:19.087Z,97268.30
2019-05-26T19:34:49.311Z,97274.78
2019-05-26T19:37:19.382Z,97277.47
2019-05-26T19:39:49.716Z,97277.78
2019-05-26T19:42:19.888Z,97280.58
2019-05-26T19:44:50.046Z,97280.98
2019-05-26T19:47:21.427Z,97286.13
2019-05-26T19:49:50.816Z,97283.36
2019-05-26T19:52:20.683Z,97288.43
2019-05-26T19:54:51.812Z,97295.12
2019-05-26T19:57:21.441Z,97302.22
2019-05-26T19:59:51.291Z,97305.27
2019-05-26T20:02:21.422Z,97305.67
2019-05-26T20:04:51.669Z,97300.86
2019-05-26T20:07:21.697Z,97301.48
2019-05-26T20:09:51.647Z,97303.63
2019-05-26T20:12:21.746Z,97306.13
2019-05-26T20:14:51.736Z,97307.38
2019-05-26T20:17:21.727Z,97309.78
2019-05-26T20:19:51.960Z,97314.39
2019-05-26T20:22:24.440Z,97307.92
2019-05-26T20:24:53.455Z,97317.36
2019-05-26T20:27:23.631Z,97317.36
2019-05-26T20:29:53.955Z,97313.80
2019-05-26T20:32:23.969Z,97314.62
2019-05-26T20:34:54.364Z,97311.98
2019-05-26T20:37:24.397Z,97315.03
2019-05-26T20:39:54.659Z,97313.27
2019-05-26T20:42:24.826Z,97314.19
2019-05-26T20:44:54.828Z,97310.33
2019-05-26T20:47:24.886Z,97310.22
2019-05-26T20:49:55.019Z,97307.45
2019-05-26T20:52:25.126Z,97312.03
2019-05-26T20:54:55.305Z,97305.77
2019-05-26T20:57:25.417Z,97310.50
2019-05-26T20:59:55.709Z,97305.05
2019-05-26T21:02:26.076Z,97299.09
2019-05-26T21:04:56.119Z,97302.45
2019-05-26T21:07:26.521Z,97298.06
2019-05-26T21:09:56.560Z,97303.50
2019-05-26T21:12:26.723Z,97300.55
2019-05-26T21:14:57.018Z,97291.88
2019-05-26T21:17:27.181Z,97286.58
2019-05-26T21:19:57.537Z,97289.04
2019-05-26T21:22:27.613Z,97294.75
2019-05-26T21:24:57.889Z,97297.25
2019-05-26T21:27:28.038Z,97305.07
2019-05-26T21:29:58.365Z,97303.19
2019-05-26T21:32:31.194Z,97301.16
2019-05-26T21:34:59.641Z,97301.95
2019-05-26T21:37:29.020Z,97302.52
2019-05-26T21:39:59.184Z,97298.61
2019-05-26T21:42:29.437Z,97309.95
2019-05-26T21:44:59.620Z,97304.20
2019-05-26T21:47:29.848Z,97302.48
2019-05-26T21:50:00.062Z,97305.59
2019-05-26T21:52:30.382Z,97305.95
2019-05-26T21:55:00.522Z,97303.72
2019-05-26T21:57:30.639Z,97313.14
2019-05-26T22:00:00.881Z,97309.07
2019-05-26T22:02:31.076Z,97309.52
2019-05-26T22:05:01.282Z,97311.89
2019-05-26T22:07:31.738Z,97307.16
2019-05-26T22:10:01.714Z,97303.34
2019-05-26T22:12:31.951Z,97307.47
2019-05-26T22:15:02.093Z,97308.30
2019-05-26T22:17:32.296Z,97313.73
2019-05-26T22:20:02.829Z,97315.91
2019-05-26T22:22:32.686Z,97314.59
2019-05-26T22:25:03.225Z,97311.84
2019-05-26T22:27:33.084Z,97314.64
2019-05-26T22:30:04.777Z,97309.67
2019-05-26T22:32:34.231Z,97304.63
2019-05-26T22:35:04.910Z,97301.77
2019-05-26T22:37:34.312Z,97296.47
2019-05-26T22:40:06.795Z,97297.08
2019-05-26T22:42:36.388Z,97293.72
2019-05-26T22:45:08.433Z,97290.56
2019-05-26T22:47:37.992Z,97283.59
2019-05-26T22:50:07.822Z,97288.55
2019-05-26T22:52:37.217Z,97284.56
2019-05-26T22:55:08.449Z,97282.50
2019-05-26T22:57:37.826Z,97282.20
2019-05-26T23:00:08.949Z,97287.55
2019-05-26T23:02:39.477Z,97277.80
2019-05-26T23:05:09.807Z,97273.91
2019-05-26T23:07:39.205Z,97270.99
2019-05-26T23:10:08.807Z,97273.61
2019-05-26T23:12:38.270Z,97270.92
2019-05-26T23:15:08.986Z,97264.61
2019-05-26T23:17:38.794Z,97270.34
2019-05-26T23:20:08.831Z,97270.88
2019-05-26T23:22:38.212Z,97271.67
2019-05-26T23:25:09.412Z,97267.14
2019-05-26T23:27:38.794Z,97261.95
2019-05-26T23:30:09.115Z,97266.21
2019-05-26T23:32:38.751Z,97259.61
2019-05-26T23:35:09.269Z,97261.72
2019-05-26T23:37:39.233Z,97250.15
2019-05-26T23:40:10.181Z,97242.83
2019-05-26T23:42:39.657Z,97238.28
2019-05-26T23:45:10.162Z,97236.78
2019-05-26T23:47:40.096Z,97231.12
2019-05-26T23:50:10.549Z,97222.03
2019-05-26T23:52:40.458Z,97219.92
2019-05-26T23:55:11.209Z,97218.33
2019-05-26T23:57:40.642Z,97222.12
